sensor_id;sensor_type;location;lat;lon;timestamp;pressure;altitude;pressure_sealevel;temperature;humidity
8160;BME280;27404;52.398;9.646;2023-05-07T00:00:32;101281.97;;;9.50;100.00
8160;BME280;27404;52.398;9.646;2023-05-07T00:02:59;101264.09;;;9.47;100.00
8160;BME280;27404;52.398;9.646;2023-05-07T00:05:24;101270.19;;;9.49;100.00
8160;BME280;27404;52.398;9.646;2023-05-07T00:07:49;101273.97;;;9.48;100.00
8160;BME280;27404;52.398;9.646;2023-05-07T00:10:15;101273.56;;;9.44;100.00
8160;BME280;27404;52.398;9.646;2023-05-07T00:12:41;101273.19;;;9.27;100.00
8160;BME280;27404;52.398;9.646;2023-05-07T00:15:07;101272.94;;;9.29;100.00
8160;BME280;27404;52.398;9.646;2023-05-07T00:17:33;101272.94;;;9.29;100.00
8160;BME280;27404;52.398;9.646;2023-05-07T00:19:58;101274.81;;;9.28;100.00
8160;BME280;27404;52.398;9.646;2023-05-07T00:22:24;101268.75;;;9.26;100.00
8160;BME280;27404;52.398;9.646;2023-05-07T00:24:49;101269.59;;;9.20;100.00
8160;BME280;27404;52.398;9.646;2023-05-07T00:27:15;101269.38;;;9.22;100.00
8160;BME280;27404;52.398;9.646;2023-05-07T00:29:41;101266.03;;;9.26;100.00
8160;BME280;27404;52.398;9.646;2023-05-07T00:32:06;101264.53;;;9.30;100.00
8160;BME280;27404;52.398;9.646;2023-05-07T00:34:33;101262.47;;;9.26;100.00
8160;BME280;27404;52.398;9.646;2023-05-07T00:36:58;101254.28;;;9.26;100.00
8160;BME280;27404;52.398;9.646;2023-05-07T00:39:23;101258.91;;;9.25;100.00
8160;BME280;27404;52.398;9.646;2023-05-07T00:41:49;101250.06;;;9.30;100.00
8160;BME280;27404;52.398;9.646;2023-05-07T00:44:16;101247.38;;;9.23;100.00
8160;BME280;27404;52.398;9.646;2023-05-07T00:46:43;101249.25;;;9.23;100.00
8160;BME280;27404;52.398;9.646;2023-05-07T00:49:10;101253.44;;;9.18;100.00
8160;BME280;27404;52.398;9.646;2023-05-07T00:51:36;101246.09;;;9.19;100.00
8160;BME280;27404;52.398;9.646;2023-05-07T00:54:03;101249.06;;;9.11;100.00
8160;BME280;27404;52.398;9.646;2023-05-07T00:56:28;101259.75;;;9.06;100.00
8160;BME280;27404;52.398;9.646;2023-05-07T00:58:54;101252.41;;;9.13;100.00
8160;BME280;27404;52.398;9.646;2023-05-07T01:01:20;101254.09;;;9.14;100.00
8160;BME280;27404;52.398;9.646;2023-05-07T01:03:45;101253.88;;;9.09;100.00
8160;BME280;27404;52.398;9.646;2023-05-07T01:06:12;101257.22;;;9.11;100.00
8160;BME280;27404;52.398;9.646;2023-05-07T01:08:39;101256.16;;;9.05;100.00
8160;BME280;27404;52.398;9.646;2023-05-07T01:11:06;101265.84;;;9.08;100.00
8160;BME280;27404;52.398;9.646;2023-05-07T01:13:34;101264.56;;;9.03;100.00
8160;BME280;27404;52.398;9.646;2023-05-07T01:16:00;101262.66;;;9.04;100.00
8160;BME280;27404;52.398;9.646;2023-05-07T01:18:25;101261.44;;;9.07;100.00
8160;BME280;27404;52.398;9.646;2023-05-07T01:20:52;101261.00;;;9.03;100.00
8160;BME280;27404;52.398;9.646;2023-05-07T01:23:18;101260.56;;;9.06;100.00
8160;BME280;27404;52.398;9.646;2023-05-07T01:25:51;101264.16;;;9.07;100.00
8160;BME280;27404;52.398;9.646;2023-05-07T01:28:17;101259.94;;;9.04;100.00
8160;BME280;27404;52.398;9.646;2023-05-07T01:30:45;101257.88;;;9.13;100.00
8160;BME280;27404;52.398;9.646;2023-05-07T01:33:13;101254.28;;;9.12;100.00
8160;BME280;27404;52.398;9.646;2023-05-07T01:35:45;101261.84;;;9.03;100.00
8160;BME280;27404;52.398;9.646;2023-05-07T01:38:12;101259.13;;;9.03;100.00
8160;BME280;27404;52.398;9.646;2023-05-07T01:40:38;101260.16;;;9.02;100.00
8160;BME280;27404;52.398;9.646;2023-05-07T01:43:04;101254.28;;;9.06;100.00
8160;BME280;27404;52.398;9.646;2023-05-07T01:45:31;101263.09;;;9.14;100.00
8160;BME280;27404;52.398;9.646;2023-05-07T01:48:02;101251.75;;;9.04;100.00
8160;BME280;27404;52.398;9.646;2023-05-07T01:50:28;101254.72;;;9.02;100.00
8160;BME280;27404;52.398;9.646;2023-05-07T01:52:55;101262.03;;;9.02;100.00
8160;BME280;27404;52.398;9.646;2023-05-07T01:55:20;101262.03;;;9.02;100.00
8160;BME280;27404;52.398;9.646;2023-05-07T01:57:45;101254.72;;;9.02;100.00
8160;BME280;27404;52.398;9.646;2023-05-07T02:00:11;101257.00;;;8.99;100.00
8160;BME280;27404;52.398;9.646;2023-05-07T02:02:37;101263.09;;;9.01;100.00
8160;BME280;27404;52.398;9.646;2023-05-07T02:05:04;101263.53;;;9.04;100.00
8160;BME280;27404;52.398;9.646;2023-05-07T02:07:29;101270.66;;;9.06;100.00
8160;BME280;27404;52.398;9.646;2023-05-07T02:09:55;101265.41;;;9.04;100.00
8160;BME280;27404;52.398;9.646;2023-05-07T02:12:21;101266.25;;;9.04;100.00
8160;BME280;27404;52.398;9.646;2023-05-07T02:14:46;101270.84;;;9.04;100.00
8160;BME280;27404;52.398;9.646;2023-05-07T02:17:12;101276.31;;;9.04;100.00
8160;BME280;27404;52.398;9.646;2023-05-07T02:19:37;101278.84;;;9.06;100.00
8160;BME280;27404;52.398;9.646;2023-05-07T02:22:03;101275.91;;;9.00;100.00
8160;BME280;27404;52.398;9.646;2023-05-07T02:24:28;101277.16;;;9.04;100.00
8160;BME280;27404;52.398;9.646;2023-05-07T02:26:53;101280.31;;;9.01;100.00
8160;BME280;27404;52.398;9.646;2023-05-07T02:29:19;101273.16;;;9.07;100.00
8160;BME280;27404;52.398;9.646;2023-05-07T02:31:44;101273.56;;;9.04;100.00
8160;BME280;27404;52.398;9.646;2023-05-07T02:34:10;101283.03;;;9.01;100.00
8160;BME280;27404;52.398;9.646;2023-05-07T02:36:35;101274.00;;;9.08;100.00
8160;BME280;27404;52.398;9.646;2023-05-07T02:39:02;101271.69;;;9.11;100.00
8160;BME280;27404;52.398;9.646;2023-05-07T02:41:27;101270.84;;;9.04;100.00
8160;BME280;27404;52.398;9.646;2023-05-07T02:43:53;101278.81;;;8.99;100.00
8160;BME280;27404;52.398;9.646;2023-05-07T02:46:19;101268.13;;;9.04;100.00
8160;BME280;27404;52.398;9.646;2023-05-07T02:48:44;101266.44;;;9.03;100.00
8160;BME280;27404;52.398;9.646;2023-05-07T02:51:10;101270.84;;;9.04;100.00
8160;BME280;27404;52.398;9.646;2023-05-07T02:53:35;101279.03;;;9.04;100.00
8160;BME280;27404;52.398;9.646;2023-05-07T02:56:01;101282.81;;;9.03;100.00
8160;BME280;27404;52.398;9.646;2023-05-07T02:58:27;101282.19;;;9.08;100.00
8160;BME280;27404;52.398;9.646;2023-05-07T03:00:53;101279.06;;;9.11;100.00
8160;BME280;27404;52.398;9.646;2023-05-07T03:03:22;101284.06;;;9.07;100.00
8160;BME280;27404;52.398;9.646;2023-05-07T03:05:47;101279.06;;;9.11;100.00
8160;BME280;27404;52.398;9.646;2023-05-07T03:08:12;101277.59;;;9.15;100.00
8160;BME280;27404;52.398;9.646;2023-05-07T03:10:38;101274.44;;;9.04;100.00
8160;BME280;27404;52.398;9.646;2023-05-07T03:13:04;101279.88;;;8.98;100.00
8160;BME280;27404;52.398;9.646;2023-05-07T03:15:30;101270.00;;;8.97;100.00
8160;BME280;27404;52.398;9.646;2023-05-07T03:17:55;101276.09;;;8.92;100.00
8160;BME280;27404;52.398;9.646;2023-05-07T03:20:21;101275.28;;;8.92;100.00
8160;BME280;27404;52.398;9.646;2023-05-07T03:22:46;101271.50;;;8.93;100.00
8160;BME280;27404;52.398;9.646;2023-05-07T03:25:12;101276.09;;;8.99;100.00
8160;BME280;27404;52.398;9.646;2023-05-07T03:27:39;101268.13;;;8.97;100.00
8160;BME280;27404;52.398;9.646;2023-05-07T03:30:05;101269.81;;;8.92;100.00
8160;BME280;27404;52.398;9.646;2023-05-07T03:32:32;101267.28;;;8.97;100.00
8160;BME280;27404;52.398;9.646;2023-05-07T03:34:57;101262.69;;;8.91;100.00
8160;BME280;27404;52.398;9.646;2023-05-07T03:37:22;101262.91;;;8.82;100.00
8160;BME280;27404;52.398;9.646;2023-05-07T03:39:48;101262.25;;;8.80;100.00
8160;BME280;27404;52.398;9.646;2023-05-07T03:42:14;101264.75;;;8.82;100.00
8160;BME280;27404;52.398;9.646;2023-05-07T03:44:40;101260.34;;;8.81;100.00
8160;BME280;27404;52.398;9.646;2023-05-07T03:47:05;101268.97;;;8.84;100.00
8160;BME280;27404;52.398;9.646;2023-05-07T03:49:31;101261.41;;;8.80;100.00
8160;BME280;27404;52.398;9.646;2023-05-07T03:51:56;101263.50;;;8.78;100.00
8160;BME280;27404;52.398;9.646;2023-05-07T03:54:22;101263.31;;;8.79;100.00
8160;BME280;27404;52.398;9.646;2023-05-07T03:56:47;101267.72;;;8.87;100.00
8160;BME280;27404;52.398;9.646;2023-05-07T03:59:13;101268.75;;;8.86;100.00
8160;BME280;27404;52.398;9.646;2023-05-07T04:01:39;101261.63;;;8.78;100.00
8160;BME280;27404;52.398;9.646;2023-05-07T04:04:05;101268.94;;;8.78;100.00
8160;BME280;27404;52.398;9.646;2023-05-07T04:06:30;101272.53;;;8.85;100.00
8160;BME280;27404;52.398;9.646;2023-05-07T04:08:56;101274.44;;;8.84;100.00
8160;BME280;27404;52.398;9.646;2023-05-07T04:11:22;101278.41;;;8.82;100.00
8160;BME280;27404;52.398;9.646;2023-05-07T04:13:47;101281.34;;;8.80;100.00
8160;BME280;27404;52.398;9.646;2023-05-07T04:16:12;101281.50;;;8.65;100.00
8160;BME280;27404;52.398;9.646;2023-05-07T04:18:38;101280.69;;;8.65;100.00
8160;BME280;27404;52.398;9.646;2023-05-07T04:21:04;101286.13;;;8.71;100.00
8160;BME280;27404;52.398;9.646;2023-05-07T04:23:29;101287.41;;;8.76;100.00
8160;BME280;27404;52.398;9.646;2023-05-07T04:25:55;101296.03;;;8.79;100.00
8160;BME280;27404;52.398;9.646;2023-05-07T04:28:21;101293.50;;;8.78;100.00
8160;BME280;27404;52.398;9.646;2023-05-07T04:30:46;101298.72;;;8.72;100.00
8160;BME280;27404;52.398;9.646;2023-05-07T04:33:14;101305.44;;;8.77;100.00
8160;BME280;27404;52.398;9.646;2023-05-07T04:35:40;101296.44;;;8.76;100.00
8160;BME280;27404;52.398;9.646;2023-05-07T04:38:05;101296.63;;;8.74;100.00
8160;BME280;27404;52.398;9.646;2023-05-07T04:40:30;101299.78;;;8.78;100.00
8160;BME280;27404;52.398;9.646;2023-05-07T04:42:56;101304.19;;;8.79;100.00
8160;BME280;27404;52.398;9.646;2023-05-07T04:45:21;101314.06;;;8.80;100.00
8160;BME280;27404;52.398;9.646;2023-05-07T04:47:47;101313.19;;;8.80;100.00
8160;BME280;27404;52.398;9.646;2023-05-07T04:50:12;101296.25;;;8.84;100.00
8160;BME280;27404;52.398;9.646;2023-05-07T04:52:38;101304.84;;;8.81;100.00
8160;BME280;27404;52.398;9.646;2023-05-07T04:55:04;101315.09;;;8.79;100.00
8160;BME280;27404;52.398;9.646;2023-05-07T04:57:29;101315.97;;;8.86;100.00
8160;BME280;27404;52.398;9.646;2023-05-07T04:59:55;101332.94;;;8.88;100.00
8160;BME280;27404;52.398;9.646;2023-05-07T05:02:20;101321.00;;;8.89;100.00
8160;BME280;27404;52.398;9.646;2023-05-07T05:04:46;101328.75;;;8.93;100.00
8160;BME280;27404;52.398;9.646;2023-05-07T05:07:11;101328.31;;;8.96;100.00
8160;BME280;27404;52.398;9.646;2023-05-07T05:09:36;101323.31;;;8.93;100.00
8160;BME280;27404;52.398;9.646;2023-05-07T05:12:02;101336.31;;;8.91;100.00
8160;BME280;27404;52.398;9.646;2023-05-07T05:14:28;101312.41;;;8.93;100.00
8160;BME280;27404;52.398;9.646;2023-05-07T05:16:53;101329.81;;;8.92;100.00
8160;BME280;27404;52.398;9.646;2023-05-07T05:19:19;101329.78;;;8.85;100.00
8160;BME280;27404;52.398;9.646;2023-05-07T05:21:44;101326.88;;;8.86;100.00
8160;BME280;27404;52.398;9.646;2023-05-07T05:24:10;101328.97;;;8.91;100.00
8160;BME280;27404;52.398;9.646;2023-05-07T05:26:35;101336.94;;;8.93;100.00
8160;BME280;27404;52.398;9.646;2023-05-07T05:29:01;101329.16;;;8.76;100.00
8160;BME280;27404;52.398;9.646;2023-05-07T05:31:26;101324.97;;;8.80;100.00
8160;BME280;27404;52.398;9.646;2023-05-07T05:33:51;101326.03;;;8.93;100.00
8160;BME280;27404;52.398;9.646;2023-05-07T05:36:17;101324.97;;;8.87;100.00
8160;BME280;27404;52.398;9.646;2023-05-07T05:38:43;101331.91;;;8.89;100.00
8160;BME280;27404;52.398;9.646;2023-05-07T05:41:09;101327.91;;;8.99;100.00
8160;BME280;27404;52.398;9.646;2023-05-07T05:43:35;101334.63;;;9.03;100.00
8160;BME280;27404;52.398;9.646;2023-05-07T05:46:00;101333.38;;;9.12;100.00
8160;BME280;27404;52.398;9.646;2023-05-07T05:48:26;101332.34;;;9.13;100.00
8160;BME280;27404;52.398;9.646;2023-05-07T05:50:51;101322.69;;;9.17;100.00
8160;BME280;27404;52.398;9.646;2023-05-07T05:53:17;101338.63;;;9.14;100.00
8160;BME280;27404;52.398;9.646;2023-05-07T05:55:42;101344.50;;;9.11;100.00
8160;BME280;27404;52.398;9.646;2023-05-07T05:58:09;101353.31;;;9.06;100.00
8160;BME280;27404;52.398;9.646;2023-05-07T06:00:34;101360.88;;;9.11;100.00
8160;BME280;27404;52.398;9.646;2023-05-07T06:03:00;101361.06;;;9.02;100.00
8160;BME280;27404;52.398;9.646;2023-05-07T06:05:25;101356.66;;;9.08;100.00
8160;BME280;27404;52.398;9.646;2023-05-07T06:07:51;101363.00;;;9.22;100.00
8160;BME280;27404;52.398;9.646;2023-05-07T06:10:16;101357.09;;;9.32;100.00
8160;BME280;27404;52.398;9.646;2023-05-07T06:12:42;101342.44;;;9.26;100.00
8160;BME280;27404;52.398;9.646;2023-05-07T06:15:07;101343.88;;;9.36;100.00
8160;BME280;27404;52.398;9.646;2023-05-07T06:17:33;101339.91;;;9.25;100.00
8160;BME280;27404;52.398;9.646;2023-05-07T06:19:59;101336.97;;;9.33;100.00
8160;BME280;27404;52.398;9.646;2023-05-07T06:22:24;101346.19;;;9.52;100.00
8160;BME280;27404;52.398;9.646;2023-05-07T06:24:50;101336.94;;;9.67;100.00
8160;BME280;27404;52.398;9.646;2023-05-07T06:27:15;101331.03;;;9.76;100.00
8160;BME280;27404;52.398;9.646;2023-05-07T06:29:40;101340.47;;;9.81;100.00
8160;BME280;27404;52.398;9.646;2023-05-07T06:32:10;101329.50;;;10.01;100.00
8160;BME280;27404;52.398;9.646;2023-05-07T06:34:36;101330.31;;;10.15;100.00
8160;BME280;27404;52.398;9.646;2023-05-07T06:37:02;101333.38;;;10.32;100.00
8160;BME280;27404;52.398;9.646;2023-05-07T06:39:28;101337.56;;;10.34;100.00
8160;BME280;27404;52.398;9.646;2023-05-07T06:41:53;101330.84;;;10.30;100.00
8160;BME280;27404;52.398;9.646;2023-05-07T06:44:19;101336.91;;;10.46;100.00
8160;BME280;27404;52.398;9.646;2023-05-07T06:46:44;101338.34;;;10.55;100.00
8160;BME280;27404;52.398;9.646;2023-05-07T06:49:10;101332.84;;;10.62;100.00
8160;BME280;27404;52.398;9.646;2023-05-07T06:51:36;101338.09;;;10.63;100.00
8160;BME280;27404;52.398;9.646;2023-05-07T06:54:01;101350.03;;;10.76;100.00
8160;BME280;27404;52.398;9.646;2023-05-07T06:56:27;101357.38;;;10.75;100.00
8160;BME280;27404;52.398;9.646;2023-05-07T06:58:52;101351.63;;;10.90;100.00
8160;BME280;27404;52.398;9.646;2023-05-07T07:01:18;101352.97;;;11.06;100.00
8160;BME280;27404;52.398;9.646;2023-05-07T07:03:43;101351.66;;;10.84;100.00
8160;BME280;27404;52.398;9.646;2023-05-07T07:06:08;101354.38;;;10.84;100.00
8160;BME280;27404;52.398;9.646;2023-05-07T07:08:34;101359.72;;;11.04;100.00
8160;BME280;27404;52.398;9.646;2023-05-07T07:11:00;101362.19;;;11.12;100.00
8160;BME280;27404;52.398;9.646;2023-05-07T07:13:25;101365.63;;;11.01;100.00
8160;BME280;27404;52.398;9.646;2023-05-07T07:15:51;101367.00;;;10.85;100.00
8160;BME280;27404;52.398;9.646;2023-05-07T07:18:18;101374.56;;;10.89;100.00
8160;BME280;27404;52.398;9.646;2023-05-07T07:20:43;101367.53;;;11.00;100.00
8160;BME280;27404;52.398;9.646;2023-05-07T07:23:09;101383.72;;;11.02;100.00
8160;BME280;27404;52.398;9.646;2023-05-07T07:25:35;101377.69;;;11.25;100.00
8160;BME280;27404;52.398;9.646;2023-05-07T07:28:00;101375.31;;;11.03;100.00
8160;BME280;27404;52.398;9.646;2023-05-07T07:30:26;101385.91;;;11.25;100.00
8160;BME280;27404;52.398;9.646;2023-05-07T07:32:52;101376.63;;;11.26;100.00
8160;BME280;27404;52.398;9.646;2023-05-07T07:35:18;101377.00;;;11.30;100.00
8160;BME280;27404;52.398;9.646;2023-05-07T07:37:43;101386.53;;;11.52;100.00
8160;BME280;27404;52.398;9.646;2023-05-07T07:40:09;101384.47;;;11.92;100.00
8160;BME280;27404;52.398;9.646;2023-05-07T07:42:35;101387.19;;;12.36;100.00
8160;BME280;27404;52.398;9.646;2023-05-07T07:45:00;101400.53;;;12.81;100.00
8160;BME280;27404;52.398;9.646;2023-05-07T07:47:26;101385.31;;;12.97;100.00
8160;BME280;27404;52.398;9.646;2023-05-07T07:49:51;101384.69;;;12.83;100.00
8160;BME280;27404;52.398;9.646;2023-05-07T07:52:18;101371.56;;;12.36;100.00
8160;BME280;27404;52.398;9.646;2023-05-07T07:54:44;101378.56;;;12.32;100.00
8160;BME280;27404;52.398;9.646;2023-05-07T07:57:10;101382.91;;;12.58;100.00
8160;BME280;27404;52.398;9.646;2023-05-07T07:59:35;101379.88;;;12.48;100.00
8160;BME280;27404;52.398;9.646;2023-05-07T08:02:00;101384.34;;;12.61;100.00
8160;BME280;27404;52.398;9.646;2023-05-07T08:04:26;101370.00;;;12.78;100.00
8160;BME280;27404;52.398;9.646;2023-05-07T08:06:51;101380.88;;;13.27;100.00
8160;BME280;27404;52.398;9.646;2023-05-07T08:09:19;101380.47;;;13.66;100.00
8160;BME280;27404;52.398;9.646;2023-05-07T08:11:45;101376.41;;;13.92;100.00
8160;BME280;27404;52.398;9.646;2023-05-07T08:14:11;101385.97;;;13.42;100.00
8160;BME280;27404;52.398;9.646;2023-05-07T08:16:36;101388.31;;;12.96;100.00
8160;BME280;27404;52.398;9.646;2023-05-07T08:19:02;101380.53;;;13.35;100.00
8160;BME280;27404;52.398;9.646;2023-05-07T08:21:28;101385.97;;;13.66;100.00
8160;BME280;27404;52.398;9.646;2023-05-07T08:23:54;101375.50;;;13.20;100.00
8160;BME280;27404;52.398;9.646;2023-05-07T08:26:19;101384.00;;;13.30;100.00
8160;BME280;27404;52.398;9.646;2023-05-07T08:28:45;101384.66;;;13.68;100.00
8160;BME280;27404;52.398;9.646;2023-05-07T08:31:10;101383.13;;;13.30;100.00
8160;BME280;27404;52.398;9.646;2023-05-07T08:33:36;101385.63;;;13.50;100.00
8160;BME280;27404;52.398;9.646;2023-05-07T08:36:03;101374.66;;;13.20;100.00
8160;BME280;27404;52.398;9.646;2023-05-07T08:38:29;101378.63;;;13.24;100.00
8160;BME280;27404;52.398;9.646;2023-05-07T08:40:55;101387.34;;;13.32;100.00
8160;BME280;27404;52.398;9.646;2023-05-07T08:43:21;101388.72;;;13.54;100.00
8160;BME280;27404;52.398;9.646;2023-05-07T08:45:49;101391.16;;;13.31;100.00
8160;BME280;27404;52.398;9.646;2023-05-07T08:48:22;101382.63;;;13.09;100.00
8160;BME280;27404;52.398;9.646;2023-05-07T08:50:49;101401.13;;;13.14;100.00
8160;BME280;27404;52.398;9.646;2023-05-07T08:53:16;101412.97;;;12.84;100.00
8160;BME280;27404;52.398;9.646;2023-05-07T08:55:42;101416.31;;;12.86;100.00
8160;BME280;27404;52.398;9.646;2023-05-07T08:58:07;101416.22;;;12.93;100.00
8160;BME280;27404;52.398;9.646;2023-05-07T09:00:33;101413.13;;;12.89;100.00
8160;BME280;27404;52.398;9.646;2023-05-07T09:02:58;101406.31;;;12.92;100.00
8160;BME280;27404;52.398;9.646;2023-05-07T09:05:25;101407.72;;;12.64;100.00
8160;BME280;27404;52.398;9.646;2023-05-07T09:07:50;101408.19;;;12.61;100.00
8160;BME280;27404;52.398;9.646;2023-05-07T09:10:16;101404.94;;;13.13;100.00
8160;BME280;27404;52.398;9.646;2023-05-07T09:12:41;101409.78;;;13.29;100.00
8160;BME280;27404;52.398;9.646;2023-05-07T09:15:07;101407.22;;;13.58;100.00
8160;BME280;27404;52.398;9.646;2023-05-07T09:17:33;101397.69;;;13.49;100.00
8160;BME280;27404;52.398;9.646;2023-05-07T09:20:03;101392.09;;;13.37;100.00
8160;BME280;27404;52.398;9.646;2023-05-07T09:22:32;101387.22;;;13.27;100.00
8160;BME280;27404;52.398;9.646;2023-05-07T09:24:58;101389.75;;;13.41;100.00
8160;BME280;27404;52.398;9.646;2023-05-07T09:27:23;101400.84;;;13.03;100.00
8160;BME280;27404;52.398;9.646;2023-05-07T09:29:50;101404.31;;;12.99;100.00
8160;BME280;27404;52.398;9.646;2023-05-07T09:32:15;101399.94;;;12.79;100.00
8160;BME280;27404;52.398;9.646;2023-05-07T09:34:41;101415.38;;;12.43;100.00
8160;BME280;27404;52.398;9.646;2023-05-07T09:37:07;101388.81;;;12.25;100.00
8160;BME280;27404;52.398;9.646;2023-05-07T09:39:46;101393.34;;;12.31;100.00
8160;BME280;27404;52.398;9.646;2023-05-07T09:42:12;101395.06;;;12.81;100.00
8160;BME280;27404;52.398;9.646;2023-05-07T09:44:40;101404.81;;;13.08;100.00
8160;BME280;27404;52.398;9.646;2023-05-07T09:47:06;101399.75;;;12.93;100.00
8160;BME280;27404;52.398;9.646;2023-05-07T09:49:35;101405.06;;;12.57;100.00
8160;BME280;27404;52.398;9.646;2023-05-07T09:52:03;101412.63;;;12.43;100.00
8160;BME280;27404;52.398;9.646;2023-05-07T09:54:32;101418.84;;;12.99;100.00
8160;BME280;27404;52.398;9.646;2023-05-07T09:56:59;101406.44;;;13.27;100.00
8160;BME280;27404;52.398;9.646;2023-05-07T09:59:28;101414.69;;;13.39;100.00
8160;BME280;27404;52.398;9.646;2023-05-07T10:01:58;101407.09;;;13.11;100.00
8160;BME280;27404;52.398;9.646;2023-05-07T10:04:25;101403.91;;;13.26;100.00
8160;BME280;27404;52.398;9.646;2023-05-07T10:06:51;101413.41;;;13.42;100.00
8160;BME280;27404;52.398;9.646;2023-05-07T10:09:18;101412.28;;;13.31;100.00
8160;BME280;27404;52.398;9.646;2023-05-07T10:11:45;101413.41;;;13.42;100.00
8160;BME280;27404;52.398;9.646;2023-05-07T10:14:11;101407.38;;;13.33;100.00
8160;BME280;27404;52.398;9.646;2023-05-07T10:16:36;101416.34;;;13.40;100.00
8160;BME280;27404;52.398;9.646;2023-05-07T10:19:07;101422.41;;;13.49;100.00
8160;BME280;27404;52.398;9.646;2023-05-07T10:21:37;101423.94;;;13.14;100.00
8160;BME280;27404;52.398;9.646;2023-05-07T10:24:05;101422.28;;;12.83;100.00
8160;BME280;27404;52.398;9.646;2023-05-07T10:26:40;101408.44;;;12.89;100.00
8160;BME280;27404;52.398;9.646;2023-05-07T10:29:14;101421.34;;;13.20;100.00
8160;BME280;27404;52.398;9.646;2023-05-07T10:31:55;101418.91;;;13.42;100.00
8160;BME280;27404;52.398;9.646;2023-05-07T10:34:25;101418.59;;;13.74;100.00
8160;BME280;27404;52.398;9.646;2023-05-07T10:36:52;101422.91;;;13.94;100.00
8160;BME280;27404;52.398;9.646;2023-05-07T10:39:19;101421.56;;;14.20;100.00
8160;BME280;27404;52.398;9.646;2023-05-07T10:41:46;101423.00;;;14.11;100.00
8160;BME280;27404;52.398;9.646;2023-05-07T10:44:25;101425.03;;;14.27;100.00
8160;BME280;27404;52.398;9.646;2023-05-07T10:47:10;101414.78;;;14.23;100.00
8160;BME280;27404;52.398;9.646;2023-05-07T10:50:19;101418.63;;;13.86;100.00
8160;BME280;27404;52.398;9.646;2023-05-07T10:55:51;101424.09;;;13.62;100.00
8160;BME280;27404;52.398;9.646;2023-05-07T10:58:24;101428.50;;;13.51;100.00
8160;BME280;27404;52.398;9.646;2023-05-07T11:00:59;101437.00;;;14.09;100.00
8160;BME280;27404;52.398;9.646;2023-05-07T11:03:25;101429.38;;;14.11;100.00
8160;BME280;27404;52.398;9.646;2023-05-07T11:06:16;101426.59;;;13.99;100.00
8160;BME280;27404;52.398;9.646;2023-05-07T11:08:57;101432.34;;;14.21;100.00
8160;BME280;27404;52.398;9.646;2023-05-07T11:11:48;101434.84;;;14.23;100.00
8160;BME280;27404;52.398;9.646;2023-05-07T11:17:08;101426.47;;;14.18;100.00
8160;BME280;27404;52.398;9.646;2023-05-07T11:19:56;101423.97;;;14.16;100.00
8160;BME280;27404;52.398;9.646;2023-05-07T11:24:59;101432.00;;;13.40;100.00
8160;BME280;27404;52.398;9.646;2023-05-07T11:27:26;101432.53;;;13.48;100.00
8160;BME280;27404;52.398;9.646;2023-05-07T11:29:52;101439.88;;;13.79;100.00
8160;BME280;27404;52.398;9.646;2023-05-07T11:32:31;101429.44;;;13.69;100.00
8160;BME280;27404;52.398;9.646;2023-05-07T11:34:59;101444.53;;;14.14;100.00
8160;BME280;27404;52.398;9.646;2023-05-07T11:37:26;101437.34;;;14.25;100.00
8160;BME280;27404;52.398;9.646;2023-05-07T11:40:12;101445.59;;;14.25;100.00
8160;BME280;27404;52.398;9.646;2023-05-07T11:42:39;101430.69;;;14.20;100.00
8160;BME280;27404;52.398;9.646;2023-05-07T11:45:07;101441.31;;;14.17;100.00
8160;BME280;27404;52.398;9.646;2023-05-07T11:47:33;101429.38;;;14.64;100.00
8160;BME280;27404;52.398;9.646;2023-05-07T11:50:04;101434.78;;;14.71;100.00
8160;BME280;27404;52.398;9.646;2023-05-07T11:52:30;101427.38;;;14.71;100.00
8160;BME280;27404;52.398;9.646;2023-05-07T11:54:57;101428.81;;;15.03;100.00
8160;BME280;27404;52.398;9.646;2023-05-07T11:57:24;101435.84;;;14.82;100.00
8160;BME280;27404;52.398;9.646;2023-05-07T11:59:57;101422.31;;;14.15;100.00
8160;BME280;27404;52.398;9.646;2023-05-07T12:02:23;101426.38;;;13.89;100.00
8160;BME280;27404;52.398;9.646;2023-05-07T12:04:53;101432.34;;;13.98;100.00
8160;BME280;27404;52.398;9.646;2023-05-07T12:07:20;101415.25;;;14.07;100.00
8160;BME280;27404;52.398;9.646;2023-05-07T12:09:46;101432.09;;;13.99;100.00
8160;BME280;27404;52.398;9.646;2023-05-07T12:12:13;101429.53;;;14.45;100.00
8160;BME280;27404;52.398;9.646;2023-05-07T12:14:45;101423.81;;;14.35;100.00
8160;BME280;27404;52.398;9.646;2023-05-07T12:17:12;101432.13;;;14.76;100.00
8160;BME280;27404;52.398;9.646;2023-05-07T12:19:40;101416.38;;;14.47;100.00
8160;BME280;27404;52.398;9.646;2023-05-07T12:22:10;101432.06;;;14.35;100.00
8160;BME280;27404;52.398;9.646;2023-05-07T12:25:03;101432.78;;;14.42;100.00
8160;BME280;27404;52.398;9.646;2023-05-07T12:27:28;101434.13;;;14.40;100.00
8160;BME280;27404;52.398;9.646;2023-05-07T12:29:57;101438.28;;;14.42;100.00
8160;BME280;27404;52.398;9.646;2023-05-07T12:32:23;101432.88;;;14.71;100.00
8160;BME280;27404;52.398;9.646;2023-05-07T12:34:51;101441.72;;;15.31;100.00
8160;BME280;27404;52.398;9.646;2023-05-07T12:37:25;101426.28;;;15.47;100.00
8160;BME280;27404;52.398;9.646;2023-05-07T12:40:10;101438.38;;;15.63;100.00
8160;BME280;27404;52.398;9.646;2023-05-07T12:42:37;101439.91;;;15.54;100.00
8160;BME280;27404;52.398;9.646;2023-05-07T12:45:13;101440.72;;;15.54;100.00
8160;BME280;27404;52.398;9.646;2023-05-07T12:47:46;101442.22;;;14.99;100.00
8160;BME280;27404;52.398;9.646;2023-05-07T12:50:16;101435.63;;;15.29;100.00
8160;BME280;27404;52.398;9.646;2023-05-07T12:52:43;101432.16;;;15.51;100.00
8160;BME280;27404;52.398;9.646;2023-05-07T12:55:13;101433.53;;;15.36;100.00
8160;BME280;27404;52.398;9.646;2023-05-07T12:57:41;101439.25;;;15.18;100.00
8160;BME280;27404;52.398;9.646;2023-05-07T13:00:10;101439.91;;;15.08;100.00
8160;BME280;27404;52.398;9.646;2023-05-07T13:02:40;101428.84;;;15.20;100.00